sensor_id;sensor_type;location;lat;lon;timestamp;temperature;humidity
5027;DHT22;2532;52.480;13.354;2023-03-01T00:02:07;3.50;76.10
5027;DHT22;2532;52.480;13.354;2023-03-01T00:04:34;3.50;75.90
5027;DHT22;2532;52.480;13.354;2023-03-01T00:07:02;3.40;75.90
5027;DHT22;2532;52.480;13.354;2023-03-01T00:09:30;3.40;76.00
5027;DHT22;2532;52.480;13.354;2023-03-01T00:11:57;3.40;76.20
5027;DHT22;2532;52.480;13.354;2023-03-01T00:14:24;3.40;76.30
5027;DHT22;2532;52.480;13.354;2023-03-01T00:16:51;3.40;76.30
5027;DHT22;2532;52.480;13.354;2023-03-01T00:19:19;3.40;77.10
5027;DHT22;2532;52.480;13.354;2023-03-01T00:21:47;3.40;76.50
5027;DHT22;2532;52.480;13.354;2023-03-01T00:24:17;3.30;76.50
5027;DHT22;2532;52.480;13.354;2023-03-01T00:26:46;3.30;76.60
5027;DHT22;2532;52.480;13.354;2023-03-01T00:29:13;3.30;76.70
5027;DHT22;2532;52.480;13.354;2023-03-01T00:31:40;3.30;76.70
5027;DHT22;2532;52.480;13.354;2023-03-01T00:34:06;3.30;76.70
5027;DHT22;2532;52.480;13.354;2023-03-01T00:36:35;3.30;76.70
5027;DHT22;2532;52.480;13.354;2023-03-01T00:39:03;3.30;76.80
5027;DHT22;2532;52.480;13.354;2023-03-01T00:41:31;3.20;76.80
5027;DHT22;2532;52.480;13.354;2023-03-01T00:44:01;3.20;76.90
5027;DHT22;2532;52.480;13.354;2023-03-01T00:46:28;3.20;77.30
5027;DHT22;2532;52.480;13.354;2023-03-01T00:48:55;3.20;77.50
5027;DHT22;2532;52.480;13.354;2023-03-01T00:51:24;3.20;77.70
5027;DHT22;2532;52.480;13.354;2023-03-01T00:53:52;3.20;78.40
5027;DHT22;2532;52.480;13.354;2023-03-01T00:56:20;3.20;77.90
5027;DHT22;2532;52.480;13.354;2023-03-01T00:58:47;3.20;77.90
5027;DHT22;2532;52.480;13.354;2023-03-01T01:01:16;3.20;78.10
5027;DHT22;2532;52.480;13.354;2023-03-01T01:03:46;3.20;78.30
5027;DHT22;2532;52.480;13.354;2023-03-01T01:06:15;3.20;78.40
5027;DHT22;2532;52.480;13.354;2023-03-01T01:08:42;3.20;78.60
5027;DHT22;2532;52.480;13.354;2023-03-01T01:11:09;3.20;78.70
5027;DHT22;2532;52.480;13.354;2023-03-01T01:13:37;3.20;78.80
5027;DHT22;2532;52.480;13.354;2023-03-01T01:16:04;3.10;78.90
5027;DHT22;2532;52.480;13.354;2023-03-01T01:18:34;3.20;79.40
5027;DHT22;2532;52.480;13.354;2023-03-01T01:21:06;3.20;79.70
5027;DHT22;2532;52.480;13.354;2023-03-01T01:23:34;3.20;79.80
5027;DHT22;2532;52.480;13.354;2023-03-01T01:26:05;3.20;79.80
5027;DHT22;2532;52.480;13.354;2023-03-01T01:28:33;3.20;79.90
5027;DHT22;2532;52.480;13.354;2023-03-01T01:31:00;3.20;79.80
5027;DHT22;2532;52.480;13.354;2023-03-01T01:33:27;3.20;79.70
5027;DHT22;2532;52.480;13.354;2023-03-01T01:35:55;3.20;80.10
5027;DHT22;2532;52.480;13.354;2023-03-01T01:38:22;3.20;80.10
5027;DHT22;2532;52.480;13.354;2023-03-01T01:40:51;3.20;80.00
5027;DHT22;2532;52.480;13.354;2023-03-01T01:43:21;3.30;80.00
5027;DHT22;2532;52.480;13.354;2023-03-01T01:45:51;3.30;79.80
5027;DHT22;2532;52.480;13.354;2023-03-01T01:48:21;3.30;79.60
5027;DHT22;2532;52.480;13.354;2023-03-01T01:50:55;3.30;79.50
5027;DHT22;2532;52.480;13.354;2023-03-01T01:53:24;3.30;79.40
5027;DHT22;2532;52.480;13.354;2023-03-01T01:55:55;3.30;79.30
5027;DHT22;2532;52.480;13.354;2023-03-01T01:58:26;3.30;79.20
5027;DHT22;2532;52.480;13.354;2023-03-01T02:00:56;3.40;79.20
5027;DHT22;2532;52.480;13.354;2023-03-01T02:03:26;3.30;79.00
5027;DHT22;2532;52.480;13.354;2023-03-01T02:06:00;3.30;79.00
5027;DHT22;2532;52.480;13.354;2023-03-01T02:08:35;3.30;78.90
5027;DHT22;2532;52.480;13.354;2023-03-01T02:11:03;3.20;78.70
5027;DHT22;2532;52.480;13.354;2023-03-01T02:13:31;3.20;78.50
5027;DHT22;2532;52.480;13.354;2023-03-01T02:15:58;3.10;78.50
5027;DHT22;2532;52.480;13.354;2023-03-01T02:18:26;3.00;78.60
5027;DHT22;2532;52.480;13.354;2023-03-01T02:21:05;3.00;78.90
5027;DHT22;2532;52.480;13.354;2023-03-01T02:23:34;2.90;79.20
5027;DHT22;2532;52.480;13.354;2023-03-01T02:26:05;2.80;79.40
5027;DHT22;2532;52.480;13.354;2023-03-01T02:28:35;2.80;79.60
5027;DHT22;2532;52.480;13.354;2023-03-01T02:31:05;2.80;79.90
5027;DHT22;2532;52.480;13.354;2023-03-01T02:33:51;2.80;80.10
5027;DHT22;2532;52.480;13.354;2023-03-01T02:36:23;2.70;80.20
5027;DHT22;2532;52.480;13.354;2023-03-01T02:38:53;2.70;80.40
5027;DHT22;2532;52.480;13.354;2023-03-01T02:41:22;2.70;80.70
5027;DHT22;2532;52.480;13.354;2023-03-01T02:43:51;2.70;80.80
5027;DHT22;2532;52.480;13.354;2023-03-01T02:46:21;2.70;81.70
5027;DHT22;2532;52.480;13.354;2023-03-01T02:48:51;2.60;81.10
5027;DHT22;2532;52.480;13.354;2023-03-01T02:51:27;2.70;81.20
5027;DHT22;2532;52.480;13.354;2023-03-01T02:54:04;2.60;81.10
5027;DHT22;2532;52.480;13.354;2023-03-01T02:56:34;2.60;81.20
5027;DHT22;2532;52.480;13.354;2023-03-01T02:59:03;2.60;81.40
5027;DHT22;2532;52.480;13.354;2023-03-01T03:01:30;2.60;81.30
5027;DHT22;2532;52.480;13.354;2023-03-01T03:04:04;2.60;81.00
5027;DHT22;2532;52.480;13.354;2023-03-01T03:06:31;2.60;81.10
5027;DHT22;2532;52.480;13.354;2023-03-01T03:08:58;2.50;81.10
5027;DHT22;2532;52.480;13.354;2023-03-01T03:11:25;2.40;81.20
5027;DHT22;2532;52.480;13.354;2023-03-01T03:13:52;2.40;81.50
5027;DHT22;2532;52.480;13.354;2023-03-01T03:16:21;2.30;81.60
5027;DHT22;2532;52.480;13.354;2023-03-01T03:18:48;2.30;81.80
5027;DHT22;2532;52.480;13.354;2023-03-01T03:21:16;2.20;81.90
5027;DHT22;2532;52.480;13.354;2023-03-01T03:23:43;2.10;82.20
5027;DHT22;2532;52.480;13.354;2023-03-01T03:26:10;2.10;82.60
5027;DHT22;2532;52.480;13.354;2023-03-01T03:28:39;2.10;82.80
5027;DHT22;2532;52.480;13.354;2023-03-01T03:31:07;2.10;83.00
5027;DHT22;2532;52.480;13.354;2023-03-01T03:33:36;2.10;83.20
5027;DHT22;2532;52.480;13.354;2023-03-01T03:36:04;2.20;83.20
5027;DHT22;2532;52.480;13.354;2023-03-01T03:38:31;2.20;83.10
5027;DHT22;2532;52.480;13.354;2023-03-01T03:41:01;2.20;83.20
5027;DHT22;2532;52.480;13.354;2023-03-01T03:43:29;2.10;83.00
5027;DHT22;2532;52.480;13.354;2023-03-01T03:45:56;2.10;83.00
5027;DHT22;2532;52.480;13.354;2023-03-01T03:48:24;2.10;83.00
5027;DHT22;2532;52.480;13.354;2023-03-01T03:50:55;2.10;82.90
5027;DHT22;2532;52.480;13.354;2023-03-01T03:53:24;2.10;82.80
5027;DHT22;2532;52.480;13.354;2023-03-01T03:55:52;2.00;82.80
5027;DHT22;2532;52.480;13.354;2023-03-01T03:58:20;2.00;83.00
5027;DHT22;2532;52.480;13.354;2023-03-01T04:00:49;1.90;83.10
5027;DHT22;2532;52.480;13.354;2023-03-01T04:03:17;1.90;83.50
5027;DHT22;2532;52.480;13.354;2023-03-01T04:05:46;1.80;83.70
5027;DHT22;2532;52.480;13.354;2023-03-01T04:08:14;1.80;83.70
5027;DHT22;2532;52.480;13.354;2023-03-01T04:10:43;1.70;83.70
5027;DHT22;2532;52.480;13.354;2023-03-01T04:13:12;1.70;84.40
5027;DHT22;2532;52.480;13.354;2023-03-01T04:15:39;1.60;83.90
5027;DHT22;2532;52.480;13.354;2023-03-01T04:18:09;1.60;84.40
5027;DHT22;2532;52.480;13.354;2023-03-01T04:20:38;1.60;84.50
5027;DHT22;2532;52.480;13.354;2023-03-01T04:23:07;1.60;84.50
5027;DHT22;2532;52.480;13.354;2023-03-01T04:25:42;1.60;84.50
5027;DHT22;2532;52.480;13.354;2023-03-01T04:28:09;1.60;84.70
5027;DHT22;2532;52.480;13.354;2023-03-01T04:30:37;1.60;84.70
5027;DHT22;2532;52.480;13.354;2023-03-01T04:33:06;1.60;84.80
5027;DHT22;2532;52.480;13.354;2023-03-01T04:35:33;1.50;84.60
5027;DHT22;2532;52.480;13.354;2023-03-01T04:38:01;1.50;84.50
5027;DHT22;2532;52.480;13.354;2023-03-01T04:40:27;1.50;84.80
5027;DHT22;2532;52.480;13.354;2023-03-01T04:42:56;1.50;85.00
5027;DHT22;2532;52.480;13.354;2023-03-01T04:45:23;1.40;85.30
5027;DHT22;2532;52.480;13.354;2023-03-01T04:47:50;1.40;85.50
5027;DHT22;2532;52.480;13.354;2023-03-01T04:50:18;1.40;85.60
5027;DHT22;2532;52.480;13.354;2023-03-01T04:52:47;1.40;85.80
5027;DHT22;2532;52.480;13.354;2023-03-01T04:55:14;1.40;86.20
5027;DHT22;2532;52.480;13.354;2023-03-01T04:57:42;1.40;86.50
5027;DHT22;2532;52.480;13.354;2023-03-01T05:00:13;1.50;86.60
5027;DHT22;2532;52.480;13.354;2023-03-01T05:02:50;1.50;86.70
5027;DHT22;2532;52.480;13.354;2023-03-01T05:05:24;1.50;86.80
5027;DHT22;2532;52.480;13.354;2023-03-01T05:07:53;1.50;86.90
5027;DHT22;2532;52.480;13.354;2023-03-01T05:10:20;1.50;86.90
5027;DHT22;2532;52.480;13.354;2023-03-01T05:12:47;1.60;86.80
5027;DHT22;2532;52.480;13.354;2023-03-01T05:15:16;1.60;86.70
5027;DHT22;2532;52.480;13.354;2023-03-01T05:17:43;1.60;86.70
5027;DHT22;2532;52.480;13.354;2023-03-01T05:20:10;1.60;86.40
5027;DHT22;2532;52.480;13.354;2023-03-01T05:22:37;1.50;86.20
5027;DHT22;2532;52.480;13.354;2023-03-01T05:25:05;1.50;86.10
5027;DHT22;2532;52.480;13.354;2023-03-01T05:27:33;1.40;86.30
5027;DHT22;2532;52.480;13.354;2023-03-01T05:30:00;1.40;86.60
5027;DHT22;2532;52.480;13.354;2023-03-01T05:32:41;1.40;86.80
5027;DHT22;2532;52.480;13.354;2023-03-01T05:35:09;1.40;87.10
5027;DHT22;2532;52.480;13.354;2023-03-01T05:37:39;1.40;87.20
5027;DHT22;2532;52.480;13.354;2023-03-01T05:40:08;1.40;87.30
5027;DHT22;2532;52.480;13.354;2023-03-01T05:42:45;1.40;87.20
5027;DHT22;2532;52.480;13.354;2023-03-01T05:45:12;1.30;87.30
5027;DHT22;2532;52.480;13.354;2023-03-01T05:47:43;1.30;87.70
5027;DHT22;2532;52.480;13.354;2023-03-01T05:50:12;1.30;87.90
5027;DHT22;2532;52.480;13.354;2023-03-01T05:52:39;1.30;87.90
5027;DHT22;2532;52.480;13.354;2023-03-01T05:55:07;1.30;88.00
5027;DHT22;2532;52.480;13.354;2023-03-01T05:57:34;1.30;88.30
5027;DHT22;2532;52.480;13.354;2023-03-01T06:00:01;1.20;88.40
5027;DHT22;2532;52.480;13.354;2023-03-01T06:02:28;1.30;88.70
5027;DHT22;2532;52.480;13.354;2023-03-01T06:04:57;1.30;88.70
5027;DHT22;2532;52.480;13.354;2023-03-01T06:07:24;1.30;88.60
5027;DHT22;2532;52.480;13.354;2023-03-01T06:09:51;1.30;88.50
5027;DHT22;2532;52.480;13.354;2023-03-01T06:12:18;1.30;88.40
5027;DHT22;2532;52.480;13.354;2023-03-01T06:14:45;1.20;88.30
5027;DHT22;2532;52.480;13.354;2023-03-01T06:17:13;1.20;88.60
5027;DHT22;2532;52.480;13.354;2023-03-01T06:19:40;1.20;88.90
5027;DHT22;2532;52.480;13.354;2023-03-01T06:22:08;1.20;89.00
5027;DHT22;2532;52.480;13.354;2023-03-01T06:24:35;1.20;89.30
5027;DHT22;2532;52.480;13.354;2023-03-01T06:27:02;1.30;89.50
5027;DHT22;2532;52.480;13.354;2023-03-01T06:29:29;1.30;89.70
5027;DHT22;2532;52.480;13.354;2023-03-01T06:31:56;1.40;89.80
5027;DHT22;2532;52.480;13.354;2023-03-01T06:34:26;1.40;89.80
5027;DHT22;2532;52.480;13.354;2023-03-01T06:36:53;1.50;90.00
5027;DHT22;2532;52.480;13.354;2023-03-01T06:39:21;1.50;90.00
5027;DHT22;2532;52.480;13.354;2023-03-01T06:41:48;1.50;89.90
5027;DHT22;2532;52.480;13.354;2023-03-01T06:44:15;1.60;89.90
5027;DHT22;2532;52.480;13.354;2023-03-01T06:46:42;1.70;90.00
5027;DHT22;2532;52.480;13.354;2023-03-01T06:49:09;1.70;90.20
5027;DHT22;2532;52.480;13.354;2023-03-01T06:51:37;1.80;90.20
5027;DHT22;2532;52.480;13.354;2023-03-01T06:54:04;1.80;90.10
5027;DHT22;2532;52.480;13.354;2023-03-01T06:56:33;1.90;90.00
5027;DHT22;2532;52.480;13.354;2023-03-01T06:59:00;1.90;90.00
5027;DHT22;2532;52.480;13.354;2023-03-01T07:01:28;2.00;90.00
5027;DHT22;2532;52.480;13.354;2023-03-01T07:03:55;2.10;90.00
5027;DHT22;2532;52.480;13.354;2023-03-01T07:06:23;2.10;90.00
5027;DHT22;2532;52.480;13.354;2023-03-01T07:08:50;2.10;90.00
5027;DHT22;2532;52.480;13.354;2023-03-01T07:11:17;2.20;89.90
5027;DHT22;2532;52.480;13.354;2023-03-01T07:13:45;2.30;89.60
5027;DHT22;2532;52.480;13.354;2023-03-01T07:16:12;2.30;89.40
5027;DHT22;2532;52.480;13.354;2023-03-01T07:18:39;2.40;89.30
5027;DHT22;2532;52.480;13.354;2023-03-01T07:21:07;2.40;89.00
5027;DHT22;2532;52.480;13.354;2023-03-01T07:23:35;2.50;89.00
5027;DHT22;2532;52.480;13.354;2023-03-01T07:26:02;2.60;89.00
5027;DHT22;2532;52.480;13.354;2023-03-01T07:28:29;2.60;88.80
5027;DHT22;2532;52.480;13.354;2023-03-01T07:31:02;2.70;88.80
5027;DHT22;2532;52.480;13.354;2023-03-01T07:33:29;2.80;88.90
5027;DHT22;2532;52.480;13.354;2023-03-01T07:35:57;2.90;89.00
5027;DHT22;2532;52.480;13.354;2023-03-01T07:38:25;2.90;89.00
5027;DHT22;2532;52.480;13.354;2023-03-01T07:40:52;3.00;88.60
5027;DHT22;2532;52.480;13.354;2023-03-01T07:43:19;3.10;88.40
5027;DHT22;2532;52.480;13.354;2023-03-01T07:45:46;3.20;88.30
5027;DHT22;2532;52.480;13.354;2023-03-01T07:48:14;3.20;87.90
5027;DHT22;2532;52.480;13.354;2023-03-01T07:50:42;3.20;86.70
5027;DHT22;2532;52.480;13.354;2023-03-01T07:53:09;3.30;86.20
5027;DHT22;2532;52.480;13.354;2023-03-01T07:55:36;3.40;85.80
5027;DHT22;2532;52.480;13.354;2023-03-01T07:58:03;3.50;85.50
5027;DHT22;2532;52.480;13.354;2023-03-01T08:00:30;3.50;85.30
5027;DHT22;2532;52.480;13.354;2023-03-01T08:02:59;3.60;85.10
5027;DHT22;2532;52.480;13.354;2023-03-01T08:05:28;3.70;84.90
5027;DHT22;2532;52.480;13.354;2023-03-01T08:07:55;3.70;82.80
5027;DHT22;2532;52.480;13.354;2023-03-01T08:10:22;3.70;81.10
5027;DHT22;2532;52.480;13.354;2023-03-01T08:12:51;3.70;80.70
5027;DHT22;2532;52.480;13.354;2023-03-01T08:15:18;3.80;80.30
5027;DHT22;2532;52.480;13.354;2023-03-01T08:17:45;3.90;80.50
5027;DHT22;2532;52.480;13.354;2023-03-01T08:20:12;3.90;80.50
5027;DHT22;2532;52.480;13.354;2023-03-01T08:22:40;4.00;80.00
5027;DHT22;2532;52.480;13.354;2023-03-01T08:25:08;4.10;79.10
5027;DHT22;2532;52.480;13.354;2023-03-01T08:27:35;4.10;78.00
5027;DHT22;2532;52.480;13.354;2023-03-01T08:30:02;4.10;77.20
5027;DHT22;2532;52.480;13.354;2023-03-01T08:32:29;4.20;77.00
5027;DHT22;2532;52.480;13.354;2023-03-01T08:35:00;4.20;76.30
5027;DHT22;2532;52.480;13.354;2023-03-01T08:37:26;4.20;76.80
5027;DHT22;2532;52.480;13.354;2023-03-01T08:39:57;4.30;76.90
5027;DHT22;2532;52.480;13.354;2023-03-01T08:42:24;4.40;76.50
5027;DHT22;2532;52.480;13.354;2023-03-01T08:44:51;4.40;75.80
5027;DHT22;2532;52.480;13.354;2023-03-01T08:47:18;4.50;74.80
5027;DHT22;2532;52.480;13.354;2023-03-01T08:49:45;4.50;74.40
5027;DHT22;2532;52.480;13.354;2023-03-01T08:52:12;4.60;73.90
5027;DHT22;2532;52.480;13.354;2023-03-01T08:54:39;4.60;73.10
5027;DHT22;2532;52.480;13.354;2023-03-01T08:57:07;4.70;73.10
5027;DHT22;2532;52.480;13.354;2023-03-01T08:59:35;4.80;73.10
5027;DHT22;2532;52.480;13.354;2023-03-01T09:02:03;4.80;72.80
5027;DHT22;2532;52.480;13.354;2023-03-01T09:04:30;4.90;73.00
5027;DHT22;2532;52.480;13.354;2023-03-01T09:06:57;4.90;72.70
5027;DHT22;2532;52.480;13.354;2023-03-01T09:09:25;5.00;72.10
5027;DHT22;2532;52.480;13.354;2023-03-01T09:11:52;5.10;72.50
5027;DHT22;2532;52.480;13.354;2023-03-01T09:14:20;5.10;72.10
5027;DHT22;2532;52.480;13.354;2023-03-01T09:16:47;5.20;72.20
5027;DHT22;2532;52.480;13.354;2023-03-01T09:19:14;5.30;72.30
5027;DHT22;2532;52.480;13.354;2023-03-01T09:21:42;5.30;71.40
5027;DHT22;2532;52.480;13.354;2023-03-01T09:24:19;5.40;71.00
5027;DHT22;2532;52.480;13.354;2023-03-01T09:26:46;5.40;71.50
5027;DHT22;2532;52.480;13.354;2023-03-01T09:29:13;5.50;71.50
5027;DHT22;2532;52.480;13.354;2023-03-01T09:31:42;5.60;76.70
5027;DHT22;2532;52.480;13.354;2023-03-01T09:34:10;5.70;71.40
5027;DHT22;2532;52.480;13.354;2023-03-01T09:36:37;5.80;69.50
5027;DHT22;2532;52.480;13.354;2023-03-01T09:39:04;5.90;73.20
5027;DHT22;2532;52.480;13.354;2023-03-01T09:41:47;6.00;70.20
5027;DHT22;2532;52.480;13.354;2023-03-01T09:44:29;6.10;68.50
5027;DHT22;2532;52.480;13.354;2023-03-01T09:46:59;6.20;69.20
5027;DHT22;2532;52.480;13.354;2023-03-01T09:49:28;6.20;67.40
5027;DHT22;2532;52.480;13.354;2023-03-01T09:52:00;6.20;66.80
5027;DHT22;2532;52.480;13.354;2023-03-01T09:54:31;6.30;68.50
5027;DHT22;2532;52.480;13.354;2023-03-01T09:57:06;6.30;66.80
5027;DHT22;2532;52.480;13.354;2023-03-01T09:59:52;6.30;65.60
5027;DHT22;2532;52.480;13.354;2023-03-01T10:02:29;6.30;65.20
5027;DHT22;2532;52.480;13.354;2023-03-01T10:05:04;6.30;64.70
5027;DHT22;2532;52.480;13.354;2023-03-01T10:07:40;6.30;65.10
5027;DHT22;2532;52.480;13.354;2023-03-01T10:10:21;6.30;65.10
5027;DHT22;2532;52.480;13.354;2023-03-01T10:12:50;6.30;64.90
5027;DHT22;2532;52.480;13.354;2023-03-01T10:15:25;6.40;64.00
5027;DHT22;2532;52.480;13.354;2023-03-01T10:18:02;6.40;62.60
5027;DHT22;2532;52.480;13.354;2023-03-01T10:20:42;6.50;63.10
5027;DHT22;2532;52.480;13.354;2023-03-01T10:23:10;6.50;63.30
5027;DHT22;2532;52.480;13.354;2023-03-01T10:25:47;6.50;63.70
5027;DHT22;2532;52.480;13.354;2023-03-01T10:28:19;6.70;63.80
5027;DHT22;2532;52.480;13.354;2023-03-01T10:30:47;6.70;64.20
5027;DHT22;2532;52.480;13.354;2023-03-01T10:33:17;6.80;64.30
5027;DHT22;2532;52.480;13.354;2023-03-01T10:35:47;6.80;63.50
5027;DHT22;2532;52.480;13.354;2023-03-01T10:38:15;6.80;63.70
5027;DHT22;2532;52.480;13.354;2023-03-01T10:40:54;6.90;64.10
5027;DHT22;2532;52.480;13.354;2023-03-01T10:43:23;6.90;63.80
5027;DHT22;2532;52.480;13.354;2023-03-01T10:45:51;6.90;63.10
5027;DHT22;2532;52.480;13.354;2023-03-01T10:48:21;6.90;63.10
5027;DHT22;2532;52.480;13.354;2023-03-01T10:51:03;6.90;63.20
5027;DHT22;2532;52.480;13.354;2023-03-01T10:53:34;7.00;63.00
5027;DHT22;2532;52.480;13.354;2023-03-01T10:56:04;7.10;62.90
5027;DHT22;2532;52.480;13.354;2023-03-01T10:58:33;7.20;62.80
5027;DHT22;2532;52.480;13.354;2023-03-01T11:01:02;7.20;62.30
5027;DHT22;2532;52.480;13.354;2023-03-01T11:03:32;7.30;61.00
5027;DHT22;2532;52.480;13.354;2023-03-01T11:06:03;7.30;61.70
5027;DHT22;2532;52.480;13.354;2023-03-01T11:08:36;7.20;60.80
5027;DHT22;2532;52.480;13.354;2023-03-01T11:11:26;7.30;61.10
5027;DHT22;2532;52.480;13.354;2023-03-01T11:13:58;7.30;60.70
5027;DHT22;2532;52.480;13.354;2023-03-01T11:16:29;7.40;60.20
5027;DHT22;2532;52.480;13.354;2023-03-01T11:19:18;7.50;60.00
5027;DHT22;2532;52.480;13.354;2023-03-01T11:21:59;7.60;59.70
5027;DHT22;2532;52.480;13.354;2023-03-01T11:24:33;7.70;59.60
5027;DHT22;2532;52.480;13.354;2023-03-01T11:27:04;7.80;60.30
5027;DHT22;2532;52.480;13.354;2023-03-01T11:29:37;7.90;58.30
5027;DHT22;2532;52.480;13.354;2023-03-01T11:32:07;7.90;57.70
5027;DHT22;2532;52.480;13.354;2023-03-01T11:34:43;8.00;57.30
5027;DHT22;2532;52.480;13.354;2023-03-01T11:37:19;8.00;56.50
5027;DHT22;2532;52.480;13.354;2023-03-01T11:39:54;8.00;56.30
5027;DHT22;2532;52.480;13.354;2023-03-01T11:42:28;8.10;56.30
5027;DHT22;2532;52.480;13.354;2023-03-01T11:45:08;8.20;56.20
5027;DHT22;2532;52.480;13.354;2023-03-01T11:47:48;8.30;55.40
5027;DHT22;2532;52.480;13.354;2023-03-01T11:50:28;8.40;55.10
5027;DHT22;2532;52.480;13.354;2023-03-01T11:53:13;8.50;55.30
5027;DHT22;2532;52.480;13.354;2023-03-01T11:56:02;8.60;54.70
5027;DHT22;2532;52.480;13.354;2023-03-01T11:58:52;8.70;52.80
5027;DHT22;2532;52.480;13.354;2023-03-01T12:01:43;8.70;50.50
5027;DHT22;2532;52.480;13.354;2023-03-01T12:07:17;8.70;50.40
5027;DHT22;2532;52.480;13.354;2023-03-01T12:10:04;8.80;50.60
5027;DHT22;2532;52.480;13.354;2023-03-01T12:12:37;8.90;49.60
5027;DHT22;2532;52.480;13.354;2023-03-01T12:15:33;8.90;48.70
5027;DHT22;2532;52.480;13.354;2023-03-01T12:20:59;8.90;48.20
5027;DHT22;2532;52.480;13.354;2023-03-01T12:26:30;8.70;48.30
5027;DHT22;2532;52.480;13.354;2023-03-01T12:29:11;8.70;47.80
5027;DHT22;2532;52.480;13.354;2023-03-01T12:32:07;8.70;47.50
5027;DHT22;2532;52.480;13.354;2023-03-01T12:34:48;8.70;46.90
5027;DHT22;2532;52.480;13.354;2023-03-01T12:37:36;8.80;47.40
5027;DHT22;2532;52.480;13.354;2023-03-01T12:40:33;8.80;47.10
5027;DHT22;2532;52.480;13.354;2023-03-01T12:43:12;8.80;47.10
5027;DHT22;2532;52.480;13.354;2023-03-01T12:45:54;8.90;46.90
5027;DHT22;2532;52.480;13.354;2023-03-01T12:48:35;9.00;46.20
5027;DHT22;2532;52.480;13.354;2023-03-01T12:51:10;9.00;46.80
5027;DHT22;2532;52.480;13.354;2023-03-01T12:53:40;9.10;46.90
5027;DHT22;2532;52.480;13.354;2023-03-01T12:56:10;9.20;46.50
5027;DHT22;2532;52.480;13.354;2023-03-01T12:58:45;9.30;46.40
5027;DHT22;2532;52.480;13.354;2023-03-01T13:01:22;9.30;45.30
5027;DHT22;2532;52.480;13.354;2023-03-01T13:06:50;9.40;44.70
5027;DHT22;2532;52.480;13.354;2023-03-01T13:09:24;9.40;44.30
5027;DHT22;2532;52.480;13.354;2023-03-01T13:11:58;9.50;44.10
5027;DHT22;2532;52.480;13.354;2023-03-01T13:14:44;9.40;44.40
5027;DHT22;2532;52.480;13.354;2023-03-01T13:17:32;9.40;44.80
5027;DHT22;2532;52.480;13.354;2023-03-01T13:19:59;9.50;44.90
5027;DHT22;2532;52.480;13.354;2023-03-01T13:22:29;9.50;44.50
5027;DHT22;2532;52.480;13.354;2023-03-01T13:25:13;9.50;43.80
5027;DHT22;2532;52.480;13.354;2023-03-01T13:27:43;9.50;43.70
5027;DHT22;2532;52.480;13.354;2023-03-01T13:30:39;9.50;43.30
5027;DHT22;2532;52.480;13.354;2023-03-01T13:33:34;9.40;43.70
5027;DHT22;2532;52.480;13.354;2023-03-01T13:36:07;9.50;43.80
5027;DHT22;2532;52.480;13.354;2023-03-01T13:38:38;9.50;43.90
5027;DHT22;2532;52.480;13.354;2023-03-01T13:41:07;9.60;43.70
5027;DHT22;2532;52.480;13.354;2023-03-01T13:43:37;9.60;42.90
5027;DHT22;2532;52.480;13.354;2023-03-01T13:46:09;9.60;42.80
5027;DHT22;2532;52.480;13.354;2023-03-01T13:48:38;9.70;42.40
5027;DHT22;2532;52.480;13.354;2023-03-01T13:51:09;9.70;42.30
5027;DHT22;2532;52.480;13.354;2023-03-01T13:53:42;9.80;41.90
5027;DHT22;2532;52.480;13.354;2023-03-01T13:56:12;9.80;41.00
5027;DHT22;2532;52.480;13.354;2023-03-01T13:58:53;9.90;41.10
5027;DHT22;2532;52.480;13.354;2023-03-01T14:01:29;9.90;39.50
5027;DHT22;2532;52.480;13.354;2023-03-01T14:03:57;9.90;39.70
5027;DHT22;2532;52.480;13.354;2023-03-01T14:06:25;10.00;39.00
5027;DHT22;2532;52.480;13.354;2023-03-01T14:09:03;10.00;39.50
5027;DHT22;2532;52.480;13.354;2023-03-01T14:12:02;10.00;39.50
5027;DHT22;2532;52.480;13.354;2023-03-01T14:14:48;10.10;39.50
5027;DHT22;2532;52.480;13.354;2023-03-01T14:17:49;10.20;39.50
5027;DHT22;2532;52.480;13.354;2023-03-01T14:20:20;10.30;39.20
5027;DHT22;2532;52.480;13.354;2023-03-01T14:22:49;10.30;39.00
5027;DHT22;2532;52.480;13.354;2023-03-01T14:25:25;10.40;39.10
5027;DHT22;2532;52.480;13.354;2023-03-01T14:27:58;10.50;38.80
5027;DHT22;2532;52.480;13.354;2023-03-01T14:30:31;10.50;38.50
5027;DHT22;2532;52.480;13.354;2023-03-01T14:33:01;10.50;38.50
5027;DHT22;2532;52.480;13.354;2023-03-01T14:35:31;10.50;38.80
5027;DHT22;2532;52.480;13.354;2023-03-01T14:38:00;10.50;38.60
5027;DHT22;2532;52.480;13.354;2023-03-01T14:40:34;10.50;38.70
5027;DHT22;2532;52.480;13.354;2023-03-01T14:43:09;10.50;39.10
5027;DHT22;2532;52.480;13.354;2023-03-01T14:45:38;10.50;38.20
5027;DHT22;2532;52.480;13.354;2023-03-01T14:48:07;10.40;38.20
5027;DHT22;2532;52.480;13.354;2023-03-01T14:50:35;10.40;38.10
5027;DHT22;2532;52.480;13.354;2023-03-01T14:53:07;10.40;38.30
5027;DHT22;2532;52.480;13.354;2023-03-01T14:55:45;10.50;38.90
5027;DHT22;2532;52.480;13.354;2023-03-01T14:58:14;10.40;39.90
5027;DHT22;2532;52.480;13.354;2023-03-01T15:00:48;10.40;41.10
5027;DHT22;2532;52.480;13.354;2023-03-01T15:03:23;10.50;41.00
5027;DHT22;2532;52.480;13.354;2023-03-01T15:05:51;10.50;40.20
5027;DHT22;2532;52.480;13.354;2023-03-01T15:08:21;10.50;40.60
5027;DHT22;2532;52.480;13.354;2023-03-01T15:11:00;10.50;40.50
5027;DHT22;2532;52.480;13.354;2023-03-01T15:13:31;10.60;41.60
5027;DHT22;2532;52.480;13.354;2023-03-01T15:16:05;10.60;43.40
5027;DHT22;2532;52.480;13.354;2023-03-01T15:18:34;10.60;44.20
5027;DHT22;2532;52.480;13.354;2023-03-01T15:21:09;10.50;44.20
5027;DHT22;2532;52.480;13.354;2023-03-01T15:23:37;10.50;44.20
5027;DHT22;2532;52.480;13.354;2023-03-01T15:26:06;10.40;44.40
5027;DHT22;2532;52.480;13.354;2023-03-01T15:28:35;10.30;44.70
5027;DHT22;2532;52.480;13.354;2023-03-01T15:31:16;10.30;44.90
5027;DHT22;2532;52.480;13.354;2023-03-01T15:33:45;10.10;44.90
5027;DHT22;2532;52.480;13.354;2023-03-01T15:36:36;10.10;45.20
5027;DHT22;2532;52.480;13.354;2023-03-01T15:39:04;10.00;45.70
5027;DHT22;2532;52.480;13.354;2023-03-01T15:41:37;10.00;45.80
5027;DHT22;2532;52.480;13.354;2023-03-01T15:44:15;10.00;46.10
5027;DHT22;2532;52.480;13.354;2023-03-01T15:46:46;10.00;46.50
5027;DHT22;2532;52.480;13.354;2023-03-01T15:49:27;10.00;46.70
5027;DHT22;2532;52.480;13.354;2023-03-01T15:51:57;9.90;47.80
5027;DHT22;2532;52.480;13.354;2023-03-01T15:54:25;9.90;48.20
5027;DHT22;2532;52.480;13.354;2023-03-01T15:56:53;9.80;48.40
5027;DHT22;2532;52.480;13.354;2023-03-01T15:59:20;9.80;48.60
5027;DHT22;2532;52.480;13.354;2023-03-01T16:01:49;9.70;48.80
5027;DHT22;2532;52.480;13.354;2023-03-01T16:04:17;9.70;48.90
5027;DHT22;2532;52.480;13.354;2023-03-01T16:06:49;9.60;48.90
5027;DHT22;2532;52.480;13.354;2023-03-01T16:09:20;9.60;48.80
5027;DHT22;2532;52.480;13.354;2023-03-01T16:11:48;9.60;49.20
5027;DHT22;2532;52.480;13.354;2023-03-01T16:14:18;9.60;49.50
5027;DHT22;2532;52.480;13.354;2023-03-01T16:16:46;9.50;49.50
5027;DHT22;2532;52.480;13.354;2023-03-01T16:19:15;9.50;49.70
5027;DHT22;2532;52.480;13.354;2023-03-01T16:21:42;9.50;50.00
5027;DHT22;2532;52.480;13.354;2023-03-01T16:24:12;9.50;49.70
5027;DHT22;2532;52.480;13.354;2023-03-01T16:26:48;9.40;49.60
5027;DHT22;2532;52.480;13.354;2023-03-01T16:29:15;9.40;49.60
5027;DHT22;2532;52.480;13.354;2023-03-01T16:31:42;9.40;49.60
5027;DHT22;2532;52.480;13.354;2023-03-01T16:34:09;9.40;49.80
5027;DHT22;2532;52.480;13.354;2023-03-01T16:36:37;9.30;49.60